createdAt,value
2023-02-14T00:00:13.730Z,1999.90
2023-02-14T00:01:13.685Z,1999.90
2023-02-14T00:02:13.652Z,1999.90
2023-02-14T00:03:13.622Z,1999.90
2023-02-14T00:04:13.644Z,1999.90
2023-02-14T00:05:13.514Z,1999.90
2023-02-14T00:06:13.499Z,1999.90
2023-02-14T00:07:13.495Z,1999.90
2023-02-14T00:08:13.389Z,1999.90
2023-02-14T00:09:13.352Z,1999.90
2023-02-14T00:10:13.296Z,1993.50
2023-02-14T00:11:13.312Z,1686.40
2023-02-14T00:12:13.211Z,539.50
2023-02-14T00:13:13.171Z,1598.40
2023-02-14T00:14:13.127Z,1503.70
2023-02-14T00:15:13.102Z,1255.10
2023-02-14T00:16:13.107Z,1237.30
2023-02-14T00:17:12.997Z,706.90
2023-02-14T00:18:12.952Z,1577.20
2023-02-14T00:19:13.673Z,1256.80
2023-02-14T00:20:12.871Z,1607.80
2023-02-14T00:21:12.840Z,1026.20
2023-02-14T00:22:12.787Z,971.40
2023-02-14T00:23:12.748Z,1834.10
2023-02-14T00:24:12.713Z,1869.10
2023-02-14T00:25:12.651Z,1220.50
2023-02-14T00:26:12.623Z,1506.90
2023-02-14T00:27:12.569Z,1373.70
2023-02-14T00:28:12.521Z,927.10
2023-02-14T00:29:12.481Z,1531.40
2023-02-14T00:30:12.478Z,1523.80
2023-02-14T00:31:12.444Z,1409.70
2023-02-14T00:32:12.479Z,1999.90
2023-02-14T00:33:12.306Z,1999.90
2023-02-14T00:34:12.276Z,1999.90
2023-02-14T00:35:12.237Z,1820.50
2023-02-14T00:36:12.176Z,1608.90
2023-02-14T00:37:12.131Z,1622.70
2023-02-14T00:38:12.092Z,1918.10
2023-02-14T00:39:12.046Z,1502.50
2023-02-14T00:40:12.021Z,1614.80
2023-02-14T00:41:11.965Z,1999.90
2023-02-14T00:42:11.919Z,1188.30
2023-02-14T00:43:11.873Z,1339.30
2023-02-14T00:44:11.835Z,1368.50
2023-02-14T00:45:11.787Z,1098.80
2023-02-14T00:46:11.813Z,1412.80
2023-02-14T00:47:11.704Z,1760.60
2023-02-14T00:48:11.662Z,1394.10
2023-02-14T00:49:11.620Z,1256.80
2023-02-14T00:50:11.579Z,1827.90
2023-02-14T00:51:11.527Z,1652.10
2023-02-14T00:52:11.494Z,1618.10
2023-02-14T00:53:11.448Z,1849.70
2023-02-14T00:54:11.406Z,1436.70
2023-02-14T00:55:11.381Z,1999.90
2023-02-14T00:56:11.313Z,1999.90
2023-02-14T00:57:11.272Z,1583.60
2023-02-14T00:58:11.240Z,1999.90
2023-02-14T00:59:11.180Z,1999.90
2023-02-14T01:00:11.146Z,1999.90
2023-02-14T01:01:11.187Z,1999.90
2023-02-14T01:02:11.101Z,1999.90
2023-02-14T01:03:11.010Z,1999.90
2023-02-14T01:04:10.982Z,1999.90
2023-02-14T01:05:10.929Z,1999.90
2023-02-14T01:06:10.892Z,1999.90
2023-02-14T01:07:10.865Z,1999.90
2023-02-14T01:08:10.792Z,1999.90
2023-02-14T01:09:10.748Z,1999.90
2023-02-14T01:10:10.713Z,1999.90
2023-02-14T01:11:10.664Z,1999.90
2023-02-14T01:12:10.633Z,1645.90
2023-02-14T01:13:10.577Z,1999.90
2023-02-14T01:14:10.552Z,1999.90
2023-02-14T01:15:10.500Z,1999.90
2023-02-14T01:16:10.542Z,1999.90
2023-02-14T01:17:10.412Z,1999.90
2023-02-14T01:18:10.356Z,1999.90
2023-02-14T01:19:10.318Z,1999.90
2023-02-14T01:20:10.273Z,1999.90
2023-02-14T01:21:10.231Z,1999.90
2023-02-14T01:22:10.195Z,1999.90
2023-02-14T01:23:10.146Z,934.80
2023-02-14T01:24:10.096Z,1999.90
2023-02-14T01:25:10.062Z,1999.90
2023-02-14T01:26:10.018Z,1999.90
2023-02-14T01:27:09.971Z,1999.90
2023-02-14T01:28:09.932Z,1999.90
2023-02-14T01:29:09.883Z,1999.90
2023-02-14T01:30:09.898Z,1999.90
2023-02-14T01:31:09.875Z,1999.90
2023-02-14T01:32:09.869Z,1999.90
2023-02-14T01:33:09.708Z,1999.90
2023-02-14T01:34:09.674Z,1999.90
2023-02-14T01:35:09.626Z,7.20
2023-02-14T01:36:09.576Z,7.30
2023-02-14T01:37:09.531Z,7.50
2023-02-14T01:38:09.490Z,6.90
2023-02-14T01:39:09.447Z,7.30
2023-02-14T01:40:09.413Z,6.90
2023-02-14T01:41:09.367Z,7.40
2023-02-14T01:42:09.317Z,7.60
2023-02-14T01:43:09.275Z,8.80
2023-02-14T01:44:09.232Z,7.10
2023-02-14T01:45:09.184Z,7.00
2023-02-14T01:46:09.295Z,8.10
2023-02-14T01:47:09.098Z,7.40
2023-02-14T01:48:09.056Z,8.40
2023-02-14T01:49:09.004Z,7.40
2023-02-14T01:50:09.011Z,7.00
2023-02-14T01:51:08.942Z,7.20
2023-02-14T01:52:08.897Z,6.70
2023-02-14T01:53:08.834Z,7.90
2023-02-14T01:54:08.788Z,7.40
2023-02-14T01:55:08.745Z,7.80
2023-02-14T01:56:08.714Z,7.60
2023-02-14T01:57:08.664Z,8.10
2023-02-14T01:58:08.618Z,7.90
2023-02-14T01:59:08.566Z,7.90
2023-02-14T02:00:08.531Z,7.90
2023-02-14T02:01:08.587Z,8.60
2023-02-14T02:02:08.509Z,7.50
2023-02-14T02:03:08.406Z,9.40
2023-02-14T02:04:08.352Z,8.00
2023-02-14T02:05:08.304Z,8.20
2023-02-14T02:06:08.257Z,8.20
2023-02-14T02:07:08.211Z,7.40
2023-02-14T02:08:08.166Z,9.30
2023-02-14T02:09:08.142Z,8.20
2023-02-14T02:10:08.084Z,7.50
2023-02-14T02:11:08.046Z,8.10
2023-02-14T02:12:07.989Z,7.90
2023-02-14T02:13:07.952Z,7.60
2023-02-14T02:14:07.904Z,7.70
2023-02-14T02:15:07.856Z,7.70
2023-02-14T02:16:07.816Z,7.70
2023-02-14T02:17:07.779Z,7.90
2023-02-14T02:18:07.723Z,8.10
2023-02-14T02:19:07.679Z,7.90
2023-02-14T02:20:07.636Z,8.50
2023-02-14T02:21:07.603Z,7.90
2023-02-14T02:22:07.545Z,7.80
2023-02-14T02:23:07.525Z,7.90
2023-02-14T02:24:07.466Z,8.80
2023-02-14T02:25:07.413Z,8.90
2023-02-14T02:26:07.373Z,8.30
2023-02-14T02:27:08.521Z,7.60
2023-02-14T02:28:07.277Z,9.40
2023-02-14T02:29:07.234Z,7.90
2023-02-14T02:30:07.252Z,9.50
2023-02-14T02:31:07.272Z,9.00
2023-02-14T02:32:07.296Z,7.90
2023-02-14T02:33:07.050Z,7.70
2023-02-14T02:34:07.013Z,8.50
2023-02-14T02:35:06.974Z,10.70
2023-02-14T02:36:06.929Z,8.40
2023-02-14T02:37:06.888Z,8.60
2023-02-14T02:38:06.848Z,8.70
2023-02-14T02:39:06.782Z,8.30
2023-02-14T02:40:06.770Z,8.70
2023-02-14T02:41:06.693Z,8.50
2023-02-14T02:42:06.651Z,9.50
2023-02-14T02:43:06.617Z,9.80
2023-02-14T02:44:06.560Z,8.50
2023-02-14T02:45:06.513Z,7.40
2023-02-14T02:46:06.512Z,8.80
2023-02-14T02:47:06.428Z,9.60
2023-02-14T02:48:06.411Z,8.80
2023-02-14T02:49:06.334Z,8.60
2023-02-14T02:50:06.295Z,10.20
2023-02-14T02:51:06.247Z,9.40
2023-02-14T02:52:06.204Z,9.70
2023-02-14T02:53:06.188Z,9.20
2023-02-14T02:54:06.122Z,10.20
2023-02-14T02:55:06.077Z,9.70
2023-02-14T02:56:06.037Z,9.40
2023-02-14T02:57:05.985Z,8.80
2023-02-14T02:58:05.943Z,10.20
2023-02-14T02:59:05.898Z,9.40
2023-02-14T03:00:05.854Z,10.00
2023-02-14T03:01:05.828Z,8.40
2023-02-14T03:02:05.753Z,8.70
2023-02-14T03:03:05.717Z,9.20
2023-02-14T03:04:05.661Z,9.20
2023-02-14T03:05:05.678Z,10.30
2023-02-14T03:06:05.579Z,9.40
2023-02-14T03:07:05.524Z,10.10
2023-02-14T03:08:05.481Z,10.10
2023-02-14T03:09:05.439Z,10.70
2023-02-14T03:10:05.403Z,9.30
2023-02-14T03:11:05.345Z,10.50
2023-02-14T03:12:05.303Z,10.60
2023-02-14T03:13:05.268Z,10.60
2023-02-14T03:14:05.213Z,10.30
2023-02-14T03:15:05.162Z,12.80
2023-02-14T03:16:05.194Z,12.40
2023-02-14T03:17:05.077Z,12.90
2023-02-14T03:18:05.033Z,12.40
2023-02-14T03:19:04.988Z,12.40
2023-02-14T03:20:04.940Z,10.60
2023-02-14T03:21:04.911Z,13.00
2023-02-14T03:22:04.888Z,12.30
2023-02-14T03:23:04.823Z,18.10
2023-02-14T03:24:04.771Z,23.80
2023-02-14T03:25:04.717Z,845.70
2023-02-14T03:26:04.677Z,265.90
2023-02-14T03:27:04.641Z,1171.60
2023-02-14T03:28:04.597Z,816.30
2023-02-14T03:29:04.546Z,816.90
2023-02-14T03:30:04.526Z,945.40
2023-02-14T03:31:04.728Z,979.40
2023-02-14T03:32:04.521Z,633.70
2023-02-14T03:33:04.368Z,66.10
2023-02-14T03:34:04.320Z,22.10
2023-02-14T03:35:04.265Z,23.90
2023-02-14T03:36:04.229Z,12.30
2023-02-14T03:37:04.182Z,10.70
2023-02-14T03:38:04.153Z,10.10
2023-02-14T03:39:04.088Z,10.60
2023-02-14T03:40:04.056Z,10.10
2023-02-14T03:41:04.017Z,10.50
2023-02-14T03:42:06.093Z,9.90
2023-02-14T03:43:03.922Z,9.90
2023-02-14T03:44:03.892Z,44.10
2023-02-14T03:45:03.878Z,1999.90
2023-02-14T03:46:03.802Z,1999.90
2023-02-14T03:47:03.739Z,1999.90
2023-02-14T03:48:03.695Z,1999.90
2023-02-14T03:49:03.659Z,1999.90
2023-02-14T03:50:03.616Z,1999.90
2023-02-14T03:51:03.570Z,1999.90
2023-02-14T03:52:03.518Z,1999.90
2023-02-14T03:53:03.467Z,1999.90
2023-02-14T03:54:03.426Z,1999.90
2023-02-14T03:55:03.385Z,1789.60
2023-02-14T03:56:03.337Z,1999.90
2023-02-14T03:57:03.301Z,1999.90
2023-02-14T03:58:03.250Z,1999.90
2023-02-14T03:59:03.200Z,1999.90
2023-02-14T04:00:03.166Z,1999.90
2023-02-14T04:01:03.123Z,1239.30
2023-02-14T04:02:03.070Z,1999.90
2023-02-14T04:03:03.036Z,1999.90
2023-02-14T04:04:02.984Z,1999.90
2023-02-14T04:05:02.949Z,1999.90
2023-02-14T04:06:02.897Z,1999.90
2023-02-14T04:07:02.850Z,1999.90
2023-02-14T04:08:02.814Z,1999.90
2023-02-14T04:09:02.765Z,1999.90
2023-02-14T04:10:02.722Z,1999.90
2023-02-14T04:11:02.804Z,1999.90
2023-02-14T04:12:02.634Z,1999.90
2023-02-14T04:13:02.585Z,1999.90
2023-02-14T04:14:02.551Z,1999.90
2023-02-14T04:15:02.541Z,1999.90
2023-02-14T04:16:02.524Z,1999.90
2023-02-14T04:17:02.420Z,1999.90
2023-02-14T04:18:02.397Z,1999.90
2023-02-14T04:19:02.324Z,1999.90
2023-02-14T04:20:02.290Z,1999.90
2023-02-14T04:21:02.399Z,1999.90
2023-02-14T04:22:02.207Z,1999.90
2023-02-14T04:23:03.512Z,1999.90
2023-02-14T04:24:02.112Z,1999.90
2023-02-14T04:25:02.061Z,16.10
2023-02-14T04:26:02.016Z,1999.90
2023-02-14T04:27:01.969Z,51.90
2023-02-14T04:28:01.938Z,43.80
2023-02-14T04:29:01.885Z,11.30
2023-02-14T04:30:01.927Z,31.20
2023-02-14T04:31:02.442Z,11.40
2023-02-14T04:32:01.871Z,10.60
2023-02-14T04:33:01.705Z,12.30
2023-02-14T04:34:01.676Z,12.30
2023-02-14T04:35:01.640Z,12.20
2023-02-14T04:36:01.569Z,24.90
2023-02-14T04:37:01.525Z,22.30
2023-02-14T04:38:01.485Z,16.20
2023-02-14T04:39:01.434Z,16.20
2023-02-14T04:40:01.392Z,18.70
2023-02-14T04:41:01.860Z,21.80
2023-02-14T04:42:01.303Z,22.60
2023-02-14T04:43:01.258Z,23.90
2023-02-14T04:44:01.217Z,24.40
2023-02-14T04:45:04.024Z,21.80
2023-02-14T04:46:01.128Z,17.90
2023-02-14T04:47:01.080Z,20.60
2023-02-14T04:48:01.038Z,21.10
2023-02-14T04:49:00.996Z,20.90
2023-02-14T04:50:00.953Z,21.80
2023-02-14T04:51:01.327Z,20.00
2023-02-14T04:52:00.862Z,23.90
2023-02-14T04:53:00.841Z,24.00
2023-02-14T04:54:00.768Z,33.50
2023-02-14T04:55:00.740Z,27.10
2023-02-14T04:56:00.682Z,36.50
2023-02-14T04:57:00.644Z,71.00
2023-02-14T04:58:00.589Z,63.30
2023-02-14T04:59:00.542Z,69.70
2023-02-14T05:00:00.525Z,44.80
2023-02-14T05:01:00.872Z,75.70
2023-02-14T05:02:00.488Z,53.70
2023-02-14T05:03:00.391Z,52.30
2023-02-14T05:04:00.330Z,85.20
2023-02-14T05:05:00.291Z,69.80
2023-02-14T05:06:00.234Z,67.00
2023-02-14T05:07:00.203Z,90.60
2023-02-14T05:08:00.142Z,65.90
2023-02-14T05:09:00.113Z,99.60
2023-02-14T05:10:00.059Z,184.20
2023-02-14T05:11:00.281Z,252.40
2023-02-14T05:11:59.972Z,178.40
2023-02-14T05:12:59.925Z,187.80
2023-02-14T05:13:59.897Z,308.40
2023-02-14T05:14:59.828Z,550.00
2023-02-14T05:15:59.814Z,552.40
2023-02-14T05:16:59.742Z,49.10
2023-02-14T05:17:59.713Z,51.90
2023-02-14T05:18:59.649Z,55.00
2023-02-14T05:19:59.623Z,115.90
2023-02-14T05:20:59.906Z,36.50
2023-02-14T05:21:59.519Z,37.30
2023-02-14T05:22:59.470Z,46.90
2023-02-14T05:23:59.437Z,40.30
2023-02-14T05:24:59.388Z,26.60
2023-02-14T05:25:59.340Z,25.20
2023-02-14T05:26:59.290Z,27.00
2023-02-14T05:27:59.266Z,24.10
2023-02-14T05:28:59.202Z,24.40
2023-02-14T05:29:59.213Z,34.00
2023-02-14T05:30:59.597Z,29.30
2023-02-14T05:31:59.078Z,29.90
2023-02-14T05:32:59.135Z,26.30
2023-02-14T05:33:59.024Z,27.80
2023-02-14T05:35:06.035Z,28.00
2023-02-14T05:35:58.889Z,31.20
2023-02-14T05:36:58.867Z,21.40
2023-02-14T05:37:58.812Z,36.20
2023-02-14T05:38:58.765Z,34.60
2023-02-14T05:39:58.717Z,28.10
2023-02-14T05:40:59.004Z,29.70
2023-02-14T05:41:59.438Z,24.40
2023-02-14T05:42:58.595Z,26.90
2023-02-14T05:43:58.537Z,27.30
2023-02-14T05:44:58.511Z,28.90
2023-02-14T05:45:58.542Z,26.00
2023-02-14T05:46:58.402Z,32.50
2023-02-14T05:47:58.371Z,32.60
2023-02-14T05:48:58.326Z,30.90
2023-02-14T05:49:58.277Z,32.00
2023-02-14T05:50:58.497Z,32.20
2023-02-14T05:51:58.180Z,32.80
2023-02-14T05:52:58.138Z,37.90
2023-02-14T05:53:58.101Z,39.40
2023-02-14T05:54:58.046Z,33.80
2023-02-14T05:55:58.008Z,15.90
2023-02-14T05:56:57.956Z,16.70
2023-02-14T05:57:57.913Z,26.90
2023-02-14T05:58:57.877Z,16.00
2023-02-14T05:59:57.826Z,19.40
2023-02-14T06:00:58.120Z,31.00
2023-02-14T06:01:57.757Z,26.30
2023-02-14T06:02:57.695Z,40.10
2023-02-14T06:03:57.645Z,25.90
2023-02-14T06:04:57.616Z,22.00
2023-02-14T06:05:57.556Z,23.80
2023-02-14T06:06:57.513Z,21.80
2023-02-14T06:07:57.471Z,20.90
2023-02-14T06:08:57.426Z,18.50
2023-02-14T06:09:57.382Z,20.60
2023-02-14T06:10:57.542Z,18.80
2023-02-14T06:11:57.289Z,19.10
2023-02-14T06:12:57.246Z,19.90
2023-02-14T06:13:57.198Z,19.30
2023-02-14T06:14:57.157Z,17.10
2023-02-14T06:15:57.124Z,20.50
2023-02-14T06:16:57.116Z,20.30
2023-02-14T06:17:57.054Z,19.80
2023-02-14T06:18:56.974Z,21.00
2023-02-14T06:19:56.930Z,18.40
2023-02-14T06:20:56.930Z,18.30
2023-02-14T06:21:56.844Z,21.50
2023-02-14T06:22:56.805Z,19.10
2023-02-14T06:23:56.757Z,20.50
2023-02-14T06:24:56.707Z,18.30
2023-02-14T06:25:56.674Z,21.00
2023-02-14T06:26:56.615Z,19.90
2023-02-14T06:27:56.576Z,22.30
2023-02-14T06:28:56.525Z,21.90
2023-02-14T06:29:56.558Z,24.70
2023-02-14T06:30:56.541Z,23.90
2023-02-14T06:31:56.509Z,23.60
2023-02-14T06:32:56.346Z,27.90
2023-02-14T06:33:56.313Z,27.00
2023-02-14T06:34:56.298Z,27.10
2023-02-14T06:35:56.226Z,28.30
2023-02-14T06:36:56.181Z,26.30
2023-02-14T06:37:56.113Z,29.80
2023-02-14T06:38:56.087Z,27.00
2023-02-14T06:39:56.024Z,26.40
2023-02-14T06:40:55.982Z,24.50
2023-02-14T06:41:55.944Z,27.60
2023-02-14T06:42:55.888Z,29.80
2023-02-14T06:43:55.844Z,31.60
2023-02-14T06:44:55.799Z,29.30
2023-02-14T06:45:55.819Z,30.70
2023-02-14T06:46:55.707Z,28.20
2023-02-14T06:47:55.677Z,29.30
2023-02-14T06:48:55.617Z,32.50
2023-02-14T06:49:55.572Z,25.20
2023-02-14T06:50:55.543Z,27.20
2023-02-14T06:51:55.501Z,28.60
2023-02-14T06:52:55.437Z,27.50
2023-02-14T06:53:55.392Z,24.10
2023-02-14T06:54:55.350Z,28.50
2023-02-14T06:55:55.307Z,27.70
2023-02-14T06:56:55.272Z,24.60
2023-02-14T06:57:55.213Z,26.80
2023-02-14T06:58:55.174Z,26.00
2023-02-14T06:59:55.122Z,27.20
2023-02-14T07:00:55.085Z,29.70
2023-02-14T07:01:55.049Z,26.50
2023-02-14T07:02:55.144Z,25.80
2023-02-14T07:03:54.973Z,27.10
2023-02-14T07:04:54.898Z,25.80
2023-02-14T07:05:54.849Z,27.80
2023-02-14T07:06:54.804Z,27.50
2023-02-14T07:07:54.771Z,31.20
2023-02-14T07:08:54.725Z,30.80
2023-02-14T07:09:54.673Z,28.30
2023-02-14T07:10:54.626Z,26.50
2023-02-14T07:11:54.582Z,27.60
2023-02-14T07:12:54.535Z,28.90
2023-02-14T07:13:54.499Z,28.10
2023-02-14T07:14:54.448Z,29.00
2023-02-14T07:15:54.420Z,29.60
2023-02-14T07:16:54.362Z,28.30
2023-02-14T07:17:54.312Z,27.20
2023-02-14T07:18:54.278Z,28.80
2023-02-14T07:19:54.239Z,27.80
2023-02-14T07:20:54.185Z,32.10
2023-02-14T07:21:54.133Z,30.00
2023-02-14T07:22:54.086Z,30.70
2023-02-14T07:23:54.038Z,28.90
2023-02-14T07:24:54.006Z,30.00
2023-02-14T07:25:53.952Z,31.00
2023-02-14T07:26:53.936Z,91.60
2023-02-14T07:27:53.861Z,93.80
2023-02-14T07:28:53.817Z,108.50
2023-02-14T07:29:53.798Z,166.10
2023-02-14T07:30:53.858Z,213.20
2023-02-14T07:31:53.853Z,643.70
2023-02-14T07:32:53.652Z,1999.90
2023-02-14T07:33:53.589Z,1999.90
2023-02-14T07:34:53.555Z,24.70
2023-02-14T07:35:53.520Z,1999.90
2023-02-14T07:36:53.461Z,1999.90
2023-02-14T07:37:53.430Z,1999.90
2023-02-14T07:38:53.370Z,1999.90
2023-02-14T07:39:53.329Z,1999.90
2023-02-14T07:40:53.285Z,1999.90
2023-02-14T07:41:53.239Z,1999.90
2023-02-14T07:42:53.207Z,1999.90
2023-02-14T07:43:53.167Z,165.90
2023-02-14T07:44:53.129Z,556.70
2023-02-14T07:45:53.124Z,103.20
2023-02-14T07:46:53.029Z,18.50
2023-02-14T07:47:52.992Z,18.50
2023-02-14T07:48:52.950Z,18.90
2023-02-14T07:49:52.907Z,20.80
2023-02-14T07:50:52.862Z,31.20
2023-02-14T07:51:52.816Z,24.50
2023-02-14T07:52:52.778Z,23.70
2023-02-14T07:53:52.760Z,28.30
2023-02-14T07:54:52.692Z,27.20
2023-02-14T07:55:52.672Z,32.10
2023-02-14T07:56:52.616Z,28.20
2023-02-14T07:57:52.573Z,21.30
2023-02-14T07:58:52.534Z,20.40
2023-02-14T07:59:52.503Z,30.60
2023-02-14T08:00:52.462Z,20.40
2023-02-14T08:01:52.461Z,22.90
2023-02-14T08:02:52.369Z,18.60
2023-02-14T08:03:52.327Z,25.10
2023-02-14T08:04:52.327Z,49.00
2023-02-14T08:05:52.248Z,45.70
2023-02-14T08:06:52.209Z,89.60
2023-02-14T08:07:52.177Z,132.50
2023-02-14T08:08:52.139Z,442.80
2023-02-14T08:09:52.097Z,1808.90
2023-02-14T08:10:52.047Z,15.90
2023-02-14T08:11:52.010Z,15.40
2023-02-14T08:12:51.991Z,16.10
2023-02-14T08:13:51.927Z,15.20
2023-02-14T08:14:51.905Z,16.70
2023-02-14T08:15:51.939Z,16.30
2023-02-14T08:16:51.820Z,240.90
2023-02-14T08:17:51.775Z,20.10
2023-02-14T08:18:51.734Z,15.70
2023-02-14T08:19:51.694Z,15.70
2023-02-14T08:20:51.896Z,15.30
2023-02-14T08:21:51.630Z,15.30
2023-02-14T08:22:51.582Z,16.10
2023-02-14T08:23:51.541Z,16.40
2023-02-14T08:24:51.508Z,14.40
2023-02-14T08:25:51.467Z,15.30
2023-02-14T08:26:51.445Z,15.30
2023-02-14T08:27:51.397Z,14.90
2023-02-14T08:28:51.353Z,160.60
2023-02-14T08:29:51.348Z,26.70
2023-02-14T08:30:51.300Z,32.70
2023-02-14T08:31:51.345Z,16.10
2023-02-14T08:32:51.289Z,15.20
2023-02-14T08:33:51.171Z,16.30
2023-02-14T08:34:51.127Z,15.40
2023-02-14T08:35:51.084Z,16.40
2023-02-14T08:36:51.052Z,15.10
2023-02-14T08:37:51.037Z,15.20
2023-02-14T08:38:50.978Z,15.60
2023-02-14T08:39:50.932Z,17.90
2023-02-14T08:40:50.904Z,17.80
2023-02-14T08:41:50.857Z,15.40
2023-02-14T08:42:50.821Z,17.10
2023-02-14T08:43:50.796Z,16.00
2023-02-14T08:44:50.746Z,17.80
2023-02-14T08:45:50.720Z,15.50
2023-02-14T08:46:50.736Z,15.70
2023-02-14T08:47:50.646Z,15.80
2023-02-14T08:48:50.635Z,15.40
2023-02-14T08:49:50.572Z,16.20
2023-02-14T08:50:50.539Z,15.80
2023-02-14T08:51:50.488Z,15.70
2023-02-14T08:52:50.451Z,15.70
2023-02-14T08:53:50.420Z,15.90
2023-02-14T08:54:50.419Z,16.50
2023-02-14T08:55:50.364Z,17.60
2023-02-14T08:56:50.329Z,15.50
2023-02-14T08:57:50.267Z,18.40
2023-02-14T08:58:50.256Z,16.40
2023-02-14T08:59:50.220Z,16.50
2023-02-14T09:00:50.246Z,16.50
2023-02-14T09:01:50.132Z,15.80
2023-02-14T09:02:50.096Z,16.30
2023-02-14T09:03:50.101Z,16.70
2023-02-14T09:04:50.016Z,16.40
2023-02-14T09:05:49.980Z,16.50
2023-02-14T09:06:50.026Z,17.50
2023-02-14T09:07:49.949Z,18.30
2023-02-14T09:08:49.877Z,16.40
2023-02-14T09:09:49.836Z,16.70
2023-02-14T09:10:49.796Z,17.40
2023-02-14T09:11:49.763Z,17.00
2023-02-14T09:12:49.745Z,17.10
2023-02-14T09:13:49.694Z,15.90
2023-02-14T09:14:49.656Z,19.00
2023-02-14T09:15:49.618Z,16.30
2023-02-14T09:16:49.637Z,16.90
2023-02-14T09:17:49.582Z,16.40
2023-02-14T09:18:49.527Z,16.70
2023-02-14T09:19:49.481Z,15.60
2023-02-14T09:20:49.445Z,16.60
2023-02-14T09:21:49.405Z,17.30
2023-02-14T09:22:49.377Z,17.50
2023-02-14T09:23:49.343Z,16.80
2023-02-14T09:24:49.313Z,16.20
2023-02-14T09:25:49.264Z,16.70
2023-02-14T09:26:49.229Z,17.20
2023-02-14T09:27:49.188Z,16.80
2023-02-14T09:28:49.156Z,17.00
2023-02-14T09:29:49.136Z,18.20
2023-02-14T09:30:49.154Z,17.50
2023-02-14T09:31:49.178Z,18.30
2023-02-14T09:32:49.011Z,18.00
2023-02-14T09:33:48.976Z,17.60
2023-02-14T09:34:48.947Z,16.70
2023-02-14T09:35:48.912Z,17.90
2023-02-14T09:36:48.891Z,17.80
2023-02-14T09:37:48.842Z,17.80
2023-02-14T09:38:48.822Z,17.60
2023-02-14T09:39:48.769Z,17.50
2023-02-14T09:40:48.732Z,18.10
2023-02-14T09:41:48.717Z,17.40
2023-02-14T09:42:48.656Z,17.90
2023-02-14T09:43:48.618Z,18.00
2023-02-14T09:44:48.599Z,18.30
2023-02-14T09:45:48.612Z,17.70
2023-02-14T09:46:48.508Z,17.90
2023-02-14T09:47:48.485Z,17.50
2023-02-14T09:48:48.508Z,17.00
2023-02-14T09:49:48.540Z,17.60
2023-02-14T09:50:48.378Z,18.60
2023-02-14T09:51:48.332Z,17.60
2023-02-14T09:52:48.301Z,17.90
2023-02-14T09:53:48.288Z,17.80
2023-02-14T09:54:48.223Z,17.30
2023-02-14T09:55:48.193Z,17.70
2023-02-14T09:56:52.096Z,17.70
2023-02-14T09:57:48.124Z,17.10
2023-02-14T09:58:48.077Z,17.70
2023-02-14T09:59:48.058Z,18.10
2023-02-14T10:00:48.060Z,17.80
2023-02-14T10:01:48.064Z,17.50
2023-02-14T10:02:47.934Z,17.30
2023-02-14T10:03:47.905Z,18.00
2023-02-14T10:04:47.882Z,17.30
2023-02-14T10:05:47.837Z,17.60
2023-02-14T10:06:47.803Z,17.90
2023-02-14T10:07:47.764Z,17.50
2023-02-14T10:08:47.721Z,18.20
2023-02-14T10:09:47.699Z,16.80
2023-02-14T10:10:47.656Z,17.50
2023-02-14T10:11:47.626Z,17.20
2023-02-14T10:12:47.576Z,16.70
2023-02-14T10:13:47.541Z,16.20
2023-02-14T10:14:47.508Z,17.40
2023-02-14T10:15:47.487Z,17.70
2023-02-14T10:16:47.477Z,17.40
2023-02-14T10:17:47.409Z,16.80
2023-02-14T10:18:47.385Z,17.10
2023-02-14T10:19:47.330Z,17.20
2023-02-14T10:20:47.288Z,35.90
2023-02-14T10:21:48.049Z,16.80
2023-02-14T10:22:47.223Z,17.10
2023-02-14T10:23:47.217Z,18.40
2023-02-14T10:24:47.150Z,17.30
2023-02-14T10:25:47.142Z,16.90
2023-02-14T10:26:47.077Z,17.70
2023-02-14T10:27:47.044Z,17.80
2023-02-14T10:28:47.018Z,17.60
2023-02-14T10:29:46.972Z,18.20
2023-02-14T10:30:47.051Z,17.60
2023-02-14T10:31:46.976Z,16.80
2023-02-14T10:32:46.867Z,16.70
2023-02-14T10:33:46.832Z,16.30
2023-02-14T10:34:46.800Z,16.00
2023-02-14T10:35:46.761Z,17.00
2023-02-14T10:36:46.762Z,16.80
2023-02-14T10:37:46.698Z,16.20
2023-02-14T10:38:46.657Z,16.70
2023-02-14T10:39:46.625Z,16.60
2023-02-14T10:40:46.585Z,15.90
2023-02-14T10:41:46.550Z,16.40
2023-02-14T10:42:46.529Z,16.30
2023-02-14T10:43:46.487Z,16.50
2023-02-14T10:44:46.449Z,16.20
2023-02-14T10:45:46.451Z,15.80
2023-02-14T10:46:46.370Z,15.50
2023-02-14T10:47:46.351Z,16.40
2023-02-14T10:48:46.302Z,15.60
2023-02-14T10:49:46.271Z,16.30
2023-02-14T10:50:46.234Z,15.10
2023-02-14T10:51:46.193Z,15.50
2023-02-14T10:52:46.157Z,15.60
2023-02-14T10:53:46.145Z,15.60
2023-02-14T10:54:46.090Z,14.90
2023-02-14T10:55:46.057Z,15.20
2023-02-14T10:56:46.018Z,15.50
2023-02-14T10:57:45.986Z,15.40
2023-02-14T10:58:45.950Z,14.30
2023-02-14T10:59:45.942Z,14.80
2023-02-14T11:00:45.878Z,15.40
2023-02-14T11:01:45.926Z,14.10
2023-02-14T11:02:45.822Z,15.30
2023-02-14T11:03:45.834Z,14.50
2023-02-14T11:04:45.752Z,14.40
2023-02-14T11:05:46.751Z,14.50
2023-02-14T11:06:45.678Z,14.80
2023-02-14T11:07:45.645Z,14.60
2023-02-14T11:08:45.622Z,13.90
2023-02-14T11:09:45.569Z,14.70
2023-02-14T11:10:45.538Z,14.30
2023-02-14T11:11:45.501Z,15.10
2023-02-14T11:12:45.463Z,14.10
2023-02-14T11:13:45.435Z,14.80
2023-02-14T11:14:45.406Z,14.60
2023-02-14T11:15:45.365Z,14.90
2023-02-14T11:16:45.369Z,13.80
2023-02-14T11:17:45.288Z,14.60
2023-02-14T11:18:45.250Z,14.80
2023-02-14T11:19:45.231Z,15.60
2023-02-14T11:20:45.180Z,14.40
2023-02-14T11:21:45.160Z,13.70
2023-02-14T11:22:45.109Z,14.40
2023-02-14T11:23:45.077Z,13.70
2023-02-14T11:24:45.055Z,14.60
2023-02-14T11:25:45.063Z,14.80
2023-02-14T11:26:44.985Z,14.70
2023-02-14T11:27:44.937Z,14.70
2023-02-14T11:28:44.908Z,14.10
2023-02-14T11:29:44.877Z,15.20
2023-02-14T11:30:44.843Z,14.00
2023-02-14T11:31:44.940Z,14.10
2023-02-14T11:32:44.771Z,14.00
2023-02-14T11:33:44.741Z,13.10
2023-02-14T11:34:44.693Z,13.80
2023-02-14T11:35:44.657Z,14.30
2023-02-14T11:36:44.628Z,14.30
2023-02-14T11:37:44.607Z,13.90
2023-02-14T11:38:44.556Z,14.20
2023-02-14T11:39:44.515Z,14.10
2023-02-14T11:40:44.491Z,14.20
2023-02-14T11:41:44.449Z,13.90
2023-02-14T11:42:44.417Z,14.20
2023-02-14T11:43:44.387Z,13.70
2023-02-14T11:44:44.342Z,13.90
2023-02-14T11:45:44.528Z,14.40
2023-02-14T11:46:52.825Z,14.30
2023-02-14T11:47:44.240Z,14.00
2023-02-14T11:48:44.212Z,13.50
2023-02-14T11:49:44.186Z,13.70
2023-02-14T11:50:44.138Z,12.90
2023-02-14T11:51:44.113Z,13.00
2023-02-14T11:52:44.066Z,13.20
2023-02-14T11:53:44.105Z,13.20
2023-02-14T11:54:43.994Z,13.40
2023-02-14T11:55:43.986Z,13.30
2023-02-14T11:56:43.928Z,13.40
2023-02-14T11:57:43.894Z,13.20
2023-02-14T11:58:43.859Z,13.10
2023-02-14T11:59:43.827Z,13.30
2023-02-14T12:00:43.785Z,14.80
2023-02-14T12:01:43.769Z,14.00
2023-02-14T12:02:43.794Z,13.10
2023-02-14T12:03:43.724Z,12.80
2023-02-14T12:04:46.635Z,14.20
2023-02-14T12:05:43.615Z,13.40
2023-02-14T12:06:43.579Z,13.70
2023-02-14T12:07:43.560Z,12.60
2023-02-14T12:08:43.507Z,13.20
2023-02-14T12:09:43.481Z,14.80
2023-02-14T12:10:43.440Z,14.20
2023-02-14T12:11:43.405Z,13.10
2023-02-14T12:12:43.371Z,13.20
2023-02-14T12:13:43.363Z,15.50
2023-02-14T12:14:43.302Z,13.50
2023-02-14T12:15:43.327Z,12.40
2023-02-14T12:16:43.238Z,13.30
2023-02-14T12:17:43.200Z,12.00
2023-02-14T12:18:43.162Z,12.80
2023-02-14T12:19:43.138Z,12.90
2023-02-14T12:20:43.095Z,13.40
2023-02-14T12:21:43.058Z,12.90
2023-02-14T12:22:43.023Z,13.60
2023-02-14T12:23:43.001Z,13.00
2023-02-14T12:24:42.953Z,12.60
2023-02-14T12:25:42.943Z,12.90
2023-02-14T12:26:42.886Z,12.60
2023-02-14T12:27:42.848Z,12.50
2023-02-14T12:28:42.811Z,12.70
2023-02-14T12:29:42.775Z,15.00
2023-02-14T12:30:42.743Z,12.90
2023-02-14T12:31:42.817Z,11.80
2023-02-14T12:32:42.679Z,12.20
2023-02-14T12:33:42.637Z,13.80
2023-02-14T12:34:42.597Z,12.80
2023-02-14T12:35:42.563Z,12.50
2023-02-14T12:36:42.528Z,12.30
2023-02-14T12:37:42.507Z,12.80
2023-02-14T12:38:42.455Z,12.20
2023-02-14T12:39:42.431Z,13.30
2023-02-14T12:40:42.392Z,13.00
2023-02-14T12:41:42.352Z,13.10
2023-02-14T12:42:42.329Z,13.20
2023-02-14T12:43:42.294Z,13.30
2023-02-14T12:44:42.252Z,14.50